sensor_id;sensor_type;location;lat;lon;timestamp;P1;durP1;ratioP1;P2;durP2;ratioP2
70444;SDS011;57902;49.638;11.070;2023-12-20T00:01:27;7.70;;;3.05;;
70444;SDS011;57902;49.638;11.070;2023-12-20T00:03:53;8.93;;;3.45;;
70444;SDS011;57902;49.638;11.070;2023-12-20T00:06:20;8.73;;;3.40;;
70444;SDS011;57902;49.638;11.070;2023-12-20T00:08:47;7.15;;;3.10;;
70444;SDS011;57902;49.638;11.070;2023-12-20T00:11:14;6.88;;;2.95;;
70444;SDS011;57902;49.638;11.070;2023-12-20T00:13:40;7.40;;;3.00;;
70444;SDS011;57902;49.638;11.070;2023-12-20T00:16:07;9.85;;;3.17;;
70444;SDS011;57902;49.638;11.070;2023-12-20T00:18:33;9.68;;;3.03;;
70444;SDS011;57902;49.638;11.070;2023-12-20T00:21:00;7.35;;;3.15;;
70444;SDS011;57902;49.638;11.070;2023-12-20T00:23:27;6.85;;;3.10;;
70444;SDS011;57902;49.638;11.070;2023-12-20T00:25:53;5.85;;;2.75;;
70444;SDS011;57902;49.638;11.070;2023-12-20T00:28:20;7.18;;;2.90;;
70444;SDS011;57902;49.638;11.070;2023-12-20T00:30:46;7.32;;;3.17;;
70444;SDS011;57902;49.638;11.070;2023-12-20T00:33:13;6.05;;;2.42;;
70444;SDS011;57902;49.638;11.070;2023-12-20T00:35:40;7.13;;;2.53;;
70444;SDS011;57902;49.638;11.070;2023-12-20T00:38:06;5.72;;;2.40;;
70444;SDS011;57902;49.638;11.070;2023-12-20T00:40:34;6.15;;;2.30;;
70444;SDS011;57902;49.638;11.070;2023-12-20T00:43:01;6.65;;;2.35;;
70444;SDS011;57902;49.638;11.070;2023-12-20T00:45:27;4.38;;;1.88;;
70444;SDS011;57902;49.638;11.070;2023-12-20T00:47:54;5.95;;;2.00;;
70444;SDS011;57902;49.638;11.070;2023-12-20T00:50:21;5.88;;;2.03;;
70444;SDS011;57902;49.638;11.070;2023-12-20T00:52:49;4.68;;;1.85;;
70444;SDS011;57902;49.638;11.070;2023-12-20T00:55:15;4.35;;;1.48;;
70444;SDS011;57902;49.638;11.070;2023-12-20T00:57:42;5.95;;;2.05;;
70444;SDS011;57902;49.638;11.070;2023-12-20T01:00:09;4.55;;;1.83;;
70444;SDS011;57902;49.638;11.070;2023-12-20T01:02:36;4.40;;;1.88;;
70444;SDS011;57902;49.638;11.070;2023-12-20T01:05:03;4.40;;;1.85;;
70444;SDS011;57902;49.638;11.070;2023-12-20T01:07:29;4.47;;;1.77;;
70444;SDS011;57902;49.638;11.070;2023-12-20T01:09:56;4.25;;;1.55;;
70444;SDS011;57902;49.638;11.070;2023-12-20T01:12:22;4.35;;;1.70;;
70444;SDS011;57902;49.638;11.070;2023-12-20T01:14:49;4.82;;;1.92;;
70444;SDS011;57902;49.638;11.070;2023-12-20T01:17:15;4.85;;;1.60;;
70444;SDS011;57902;49.638;11.070;2023-12-20T01:19:42;4.50;;;1.60;;
70444;SDS011;57902;49.638;11.070;2023-12-20T01:22:09;4.07;;;1.50;;
70444;SDS011;57902;49.638;11.070;2023-12-20T01:24:35;2.35;;;1.23;;
70444;SDS011;57902;49.638;11.070;2023-12-20T01:27:02;3.60;;;1.30;;
70444;SDS011;57902;49.638;11.070;2023-12-20T01:29:29;4.28;;;1.42;;
70444;SDS011;57902;49.638;11.070;2023-12-20T01:31:55;3.20;;;1.40;;
70444;SDS011;57902;49.638;11.070;2023-12-20T01:34:22;3.65;;;1.45;;
70444;SDS011;57902;49.638;11.070;2023-12-20T01:36:48;3.38;;;1.40;;
70444;SDS011;57902;49.638;11.070;2023-12-20T01:39:16;3.75;;;1.45;;
70444;SDS011;57902;49.638;11.070;2023-12-20T01:41:53;2.78;;;1.30;;
70444;SDS011;57902;49.638;11.070;2023-12-20T01:44:20;2.70;;;1.20;;
70444;SDS011;57902;49.638;11.070;2023-12-20T01:46:47;1.92;;;1.20;;
70444;SDS011;57902;49.638;11.070;2023-12-20T01:49:14;3.28;;;1.42;;
70444;SDS011;57902;49.638;11.070;2023-12-20T01:51:42;3.13;;;1.10;;
70444;SDS011;57902;49.638;11.070;2023-12-20T01:54:09;2.75;;;1.17;;
70444;SDS011;57902;49.638;11.070;2023-12-20T01:56:36;4.38;;;1.52;;
70444;SDS011;57902;49.638;11.070;2023-12-20T01:59:02;4.05;;;1.13;;
70444;SDS011;57902;49.638;11.070;2023-12-20T02:01:31;2.90;;;1.30;;
70444;SDS011;57902;49.638;11.070;2023-12-20T02:03:58;2.40;;;1.10;;
70444;SDS011;57902;49.638;11.070;2023-12-20T02:06:26;3.22;;;1.13;;
70444;SDS011;57902;49.638;11.070;2023-12-20T02:08:57;3.78;;;1.20;;
70444;SDS011;57902;49.638;11.070;2023-12-20T02:11:25;4.15;;;1.30;;
70444;SDS011;57902;49.638;11.070;2023-12-20T02:13:52;1.67;;;0.88;;
70444;SDS011;57902;49.638;11.070;2023-12-20T02:16:19;3.10;;;1.13;;
70444;SDS011;57902;49.638;11.070;2023-12-20T02:18:46;4.13;;;0.93;;
70444;SDS011;57902;49.638;11.070;2023-12-20T02:21:13;2.03;;;1.00;;
70444;SDS011;57902;49.638;11.070;2023-12-20T02:23:41;2.97;;;1.00;;
70444;SDS011;57902;49.638;11.070;2023-12-20T02:26:07;1.75;;;0.80;;
70444;SDS011;57902;49.638;11.070;2023-12-20T02:28:34;2.47;;;1.00;;
70444;SDS011;57902;49.638;11.070;2023-12-20T02:31:01;1.92;;;0.90;;
70444;SDS011;57902;49.638;11.070;2023-12-20T02:33:28;1.92;;;0.93;;
70444;SDS011;57902;49.638;11.070;2023-12-20T02:35:54;1.90;;;1.00;;
70444;SDS011;57902;49.638;11.070;2023-12-20T02:38:21;3.65;;;1.17;;
70444;SDS011;57902;49.638;11.070;2023-12-20T02:40:48;2.45;;;0.90;;
70444;SDS011;57902;49.638;11.070;2023-12-20T02:43:15;3.13;;;0.93;;
70444;SDS011;57902;49.638;11.070;2023-12-20T02:45:42;1.58;;;0.80;;
70444;SDS011;57902;49.638;11.070;2023-12-20T02:48:09;3.97;;;1.08;;
70444;SDS011;57902;49.638;11.070;2023-12-20T02:50:36;1.48;;;1.00;;
70444;SDS011;57902;49.638;11.070;2023-12-20T02:53:02;1.95;;;0.90;;
70444;SDS011;57902;49.638;11.070;2023-12-20T02:55:29;1.50;;;0.80;;
70444;SDS011;57902;49.638;11.070;2023-12-20T02:57:56;1.23;;;0.70;;
70444;SDS011;57902;49.638;11.070;2023-12-20T03:00:22;1.00;;;0.60;;
70444;SDS011;57902;49.638;11.070;2023-12-20T03:02:49;1.42;;;0.73;;
70444;SDS011;57902;49.638;11.070;2023-12-20T03:05:16;1.50;;;0.70;;
70444;SDS011;57902;49.638;11.070;2023-12-20T03:07:43;1.10;;;0.70;;
70444;SDS011;57902;49.638;11.070;2023-12-20T03:10:10;1.15;;;0.70;;
70444;SDS011;57902;49.638;11.070;2023-12-20T03:12:48;1.63;;;0.57;;
70444;SDS011;57902;49.638;11.070;2023-12-20T03:15:16;1.77;;;0.90;;
70444;SDS011;57902;49.638;11.070;2023-12-20T03:17:42;1.05;;;0.68;;
70444;SDS011;57902;49.638;11.070;2023-12-20T03:20:09;1.38;;;0.70;;
70444;SDS011;57902;49.638;11.070;2023-12-20T03:22:36;1.33;;;0.70;;
70444;SDS011;57902;49.638;11.070;2023-12-20T03:25:02;1.02;;;0.70;;
70444;SDS011;57902;49.638;11.070;2023-12-20T03:27:29;1.65;;;0.80;;
70444;SDS011;57902;49.638;11.070;2023-12-20T03:29:56;1.90;;;0.70;;
70444;SDS011;57902;49.638;11.070;2023-12-20T03:32:22;1.35;;;0.73;;
70444;SDS011;57902;49.638;11.070;2023-12-20T03:34:49;1.10;;;0.70;;
70444;SDS011;57902;49.638;11.070;2023-12-20T03:37:16;1.85;;;0.85;;
70444;SDS011;57902;49.638;11.070;2023-12-20T03:39:42;0.95;;;0.60;;
70444;SDS011;57902;49.638;11.070;2023-12-20T03:42:09;1.50;;;0.57;;
70444;SDS011;57902;49.638;11.070;2023-12-20T03:44:38;0.98;;;0.50;;
70444;SDS011;57902;49.638;11.070;2023-12-20T03:47:05;0.90;;;0.52;;
70444;SDS011;57902;49.638;11.070;2023-12-20T03:49:32;0.98;;;0.73;;
70444;SDS011;57902;49.638;11.070;2023-12-20T03:51:58;1.35;;;0.80;;
70444;SDS011;57902;49.638;11.070;2023-12-20T03:54:25;1.10;;;0.60;;
70444;SDS011;57902;49.638;11.070;2023-12-20T03:56:52;0.50;;;0.38;;
70444;SDS011;57902;49.638;11.070;2023-12-20T03:59:18;0.75;;;0.50;;
70444;SDS011;57902;49.638;11.070;2023-12-20T04:01:45;0.80;;;0.50;;
70444;SDS011;57902;49.638;11.070;2023-12-20T04:04:12;1.10;;;0.70;;
70444;SDS011;57902;49.638;11.070;2023-12-20T04:06:39;0.60;;;0.40;;
70444;SDS011;57902;49.638;11.070;2023-12-20T04:09:06;1.23;;;0.50;;
70444;SDS011;57902;49.638;11.070;2023-12-20T04:14:02;0.90;;;0.52;;
70444;SDS011;57902;49.638;11.070;2023-12-20T04:16:31;1.95;;;0.50;;
70444;SDS011;57902;49.638;11.070;2023-12-20T04:18:58;1.15;;;0.70;;
70444;SDS011;57902;49.638;11.070;2023-12-20T04:21:24;0.80;;;0.60;;
70444;SDS011;57902;49.638;11.070;2023-12-20T04:23:51;1.08;;;0.50;;
70444;SDS011;57902;49.638;11.070;2023-12-20T04:26:17;1.77;;;0.70;;
70444;SDS011;57902;49.638;11.070;2023-12-20T04:28:44;1.10;;;0.50;;
70444;SDS011;57902;49.638;11.070;2023-12-20T04:31:10;1.00;;;0.60;;
70444;SDS011;57902;49.638;11.070;2023-12-20T04:33:37;1.10;;;0.55;;
70444;SDS011;57902;49.638;11.070;2023-12-20T04:36:04;1.70;;;0.50;;
70444;SDS011;57902;49.638;11.070;2023-12-20T04:38:30;1.67;;;0.80;;
70444;SDS011;57902;49.638;11.070;2023-12-20T04:40:57;1.20;;;0.60;;
70444;SDS011;57902;49.638;11.070;2023-12-20T04:43:23;1.02;;;0.52;;
70444;SDS011;57902;49.638;11.070;2023-12-20T04:45:51;0.52;;;0.40;;
70444;SDS011;57902;49.638;11.070;2023-12-20T04:48:17;1.58;;;0.80;;
70444;SDS011;57902;49.638;11.070;2023-12-20T04:50:44;1.10;;;0.60;;
70444;SDS011;57902;49.638;11.070;2023-12-20T04:53:10;1.20;;;0.63;;
70444;SDS011;57902;49.638;11.070;2023-12-20T04:55:37;4.97;;;0.68;;
70444;SDS011;57902;49.638;11.070;2023-12-20T04:58:03;0.75;;;0.50;;
70444;SDS011;57902;49.638;11.070;2023-12-20T05:00:30;0.85;;;0.60;;
70444;SDS011;57902;49.638;11.070;2023-12-20T05:02:57;0.68;;;0.50;;
70444;SDS011;57902;49.638;11.070;2023-12-20T05:05:24;0.73;;;0.50;;
70444;SDS011;57902;49.638;11.070;2023-12-20T05:07:50;1.65;;;0.93;;
70444;SDS011;57902;49.638;11.070;2023-12-20T05:10:19;1.25;;;0.60;;
70444;SDS011;57902;49.638;11.070;2023-12-20T05:12:45;2.63;;;0.73;;
70444;SDS011;57902;49.638;11.070;2023-12-20T05:15:12;0.98;;;0.50;;
70444;SDS011;57902;49.638;11.070;2023-12-20T05:17:38;1.38;;;0.70;;
70444;SDS011;57902;49.638;11.070;2023-12-20T05:20:05;1.63;;;0.63;;
70444;SDS011;57902;49.638;11.070;2023-12-20T05:22:32;1.40;;;0.73;;
70444;SDS011;57902;49.638;11.070;2023-12-20T05:24:59;1.98;;;0.70;;
70444;SDS011;57902;49.638;11.070;2023-12-20T05:27:26;1.10;;;0.70;;
70444;SDS011;57902;49.638;11.070;2023-12-20T05:29:52;1.55;;;0.80;;
70444;SDS011;57902;49.638;11.070;2023-12-20T05:32:19;1.25;;;0.80;;
70444;SDS011;57902;49.638;11.070;2023-12-20T05:34:46;1.85;;;0.60;;
70444;SDS011;57902;49.638;11.070;2023-12-20T05:37:12;1.83;;;1.10;;
70444;SDS011;57902;49.638;11.070;2023-12-20T05:39:39;1.83;;;0.70;;
70444;SDS011;57902;49.638;11.070;2023-12-20T05:42:05;2.08;;;0.68;;
70444;SDS011;57902;49.638;11.070;2023-12-20T05:44:32;2.28;;;0.90;;
70444;SDS011;57902;49.638;11.070;2023-12-20T05:46:58;1.60;;;0.68;;
70444;SDS011;57902;49.638;11.070;2023-12-20T05:49:25;1.58;;;0.80;;
70444;SDS011;57902;49.638;11.070;2023-12-20T05:51:51;1.38;;;0.90;;
70444;SDS011;57902;49.638;11.070;2023-12-20T05:54:18;2.03;;;0.80;;
70444;SDS011;57902;49.638;11.070;2023-12-20T05:56:45;2.20;;;0.80;;
70444;SDS011;57902;49.638;11.070;2023-12-20T05:59:11;1.05;;;0.70;;
70444;SDS011;57902;49.638;11.070;2023-12-20T06:01:38;1.00;;;0.70;;
70444;SDS011;57902;49.638;11.070;2023-12-20T06:04:04;2.20;;;0.82;;
70444;SDS011;57902;49.638;11.070;2023-12-20T06:06:31;1.85;;;0.88;;
70444;SDS011;57902;49.638;11.070;2023-12-20T06:08:57;1.60;;;0.90;;
70444;SDS011;57902;49.638;11.070;2023-12-20T06:11:25;1.77;;;0.77;;
70444;SDS011;57902;49.638;11.070;2023-12-20T06:13:52;2.67;;;1.10;;
70444;SDS011;57902;49.638;11.070;2023-12-20T06:16:21;3.88;;;1.10;;
70444;SDS011;57902;49.638;11.070;2023-12-20T06:18:48;1.83;;;0.82;;
70444;SDS011;57902;49.638;11.070;2023-12-20T06:21:14;3.22;;;1.50;;
70444;SDS011;57902;49.638;11.070;2023-12-20T06:23:41;2.05;;;1.02;;
70444;SDS011;57902;49.638;11.070;2023-12-20T06:26:07;1.88;;;1.10;;
70444;SDS011;57902;49.638;11.070;2023-12-20T06:28:34;2.60;;;1.30;;
70444;SDS011;57902;49.638;11.070;2023-12-20T06:31:03;2.95;;;1.05;;
70444;SDS011;57902;49.638;11.070;2023-12-20T06:33:30;2.28;;;1.10;;
70444;SDS011;57902;49.638;11.070;2023-12-20T06:35:59;2.67;;;1.23;;
70444;SDS011;57902;49.638;11.070;2023-12-20T06:38:26;2.78;;;1.20;;
70444;SDS011;57902;49.638;11.070;2023-12-20T06:40:53;2.60;;;1.30;;
70444;SDS011;57902;49.638;11.070;2023-12-20T06:43:20;3.85;;;1.50;;
70444;SDS011;57902;49.638;11.070;2023-12-20T06:46:06;3.08;;;1.42;;
70444;SDS011;57902;49.638;11.070;2023-12-20T06:48:33;3.45;;;1.10;;
70444;SDS011;57902;49.638;11.070;2023-12-20T06:51:00;2.72;;;1.23;;
70444;SDS011;57902;49.638;11.070;2023-12-20T06:53:28;3.42;;;1.20;;
70444;SDS011;57902;49.638;11.070;2023-12-20T06:55:55;2.20;;;1.00;;
70444;SDS011;57902;49.638;11.070;2023-12-20T06:58:22;2.90;;;1.20;;
70444;SDS011;57902;49.638;11.070;2023-12-20T07:00:49;2.90;;;1.30;;
70444;SDS011;57902;49.638;11.070;2023-12-20T07:03:17;2.75;;;1.02;;
70444;SDS011;57902;49.638;11.070;2023-12-20T07:05:44;2.90;;;1.27;;
70444;SDS011;57902;49.638;11.070;2023-12-20T07:08:11;2.50;;;1.40;;
70444;SDS011;57902;49.638;11.070;2023-12-20T07:10:40;2.25;;;1.23;;
70444;SDS011;57902;49.638;11.070;2023-12-20T07:13:06;5.03;;;1.35;;
70444;SDS011;57902;49.638;11.070;2023-12-20T07:15:34;2.58;;;1.20;;
70444;SDS011;57902;49.638;11.070;2023-12-20T07:18:02;1.92;;;1.00;;
70444;SDS011;57902;49.638;11.070;2023-12-20T07:20:29;2.95;;;1.23;;
70444;SDS011;57902;49.638;11.070;2023-12-20T07:22:55;2.45;;;1.20;;
70444;SDS011;57902;49.638;11.070;2023-12-20T07:25:22;2.08;;;1.25;;
70444;SDS011;57902;49.638;11.070;2023-12-20T07:27:48;3.58;;;1.50;;
70444;SDS011;57902;49.638;11.070;2023-12-20T07:30:15;1.92;;;0.98;;
70444;SDS011;57902;49.638;11.070;2023-12-20T07:32:42;2.35;;;1.20;;
70444;SDS011;57902;49.638;11.070;2023-12-20T07:35:08;3.28;;;1.50;;
70444;SDS011;57902;49.638;11.070;2023-12-20T07:37:35;4.35;;;1.58;;
70444;SDS011;57902;49.638;11.070;2023-12-20T07:40:02;3.33;;;1.42;;
70444;SDS011;57902;49.638;11.070;2023-12-20T07:42:29;5.22;;;1.50;;
70444;SDS011;57902;49.638;11.070;2023-12-20T07:44:56;5.57;;;2.00;;
70444;SDS011;57902;49.638;11.070;2023-12-20T07:47:22;3.92;;;1.75;;
70444;SDS011;57902;49.638;11.070;2023-12-20T07:49:49;4.55;;;2.13;;
70444;SDS011;57902;49.638;11.070;2023-12-20T07:52:18;3.28;;;1.70;;
70444;SDS011;57902;49.638;11.070;2023-12-20T07:54:45;3.38;;;1.75;;
70444;SDS011;57902;49.638;11.070;2023-12-20T07:57:12;4.70;;;1.50;;
70444;SDS011;57902;49.638;11.070;2023-12-20T07:59:39;4.07;;;1.45;;
70444;SDS011;57902;49.638;11.070;2023-12-20T08:02:05;4.35;;;1.60;;
70444;SDS011;57902;49.638;11.070;2023-12-20T08:04:32;4.90;;;1.70;;
70444;SDS011;57902;49.638;11.070;2023-12-20T08:06:59;3.08;;;1.58;;
70444;SDS011;57902;49.638;11.070;2023-12-20T08:09:26;4.18;;;1.85;;
70444;SDS011;57902;49.638;11.070;2023-12-20T08:11:53;3.25;;;1.48;;
70444;SDS011;57902;49.638;11.070;2023-12-20T08:14:19;3.33;;;1.65;;
70444;SDS011;57902;49.638;11.070;2023-12-20T08:16:46;2.53;;;1.38;;
70444;SDS011;57902;49.638;11.070;2023-12-20T08:19:12;3.20;;;1.40;;
70444;SDS011;57902;49.638;11.070;2023-12-20T08:21:40;4.97;;;2.22;;
70444;SDS011;57902;49.638;11.070;2023-12-20T08:24:08;3.28;;;1.50;;
70444;SDS011;57902;49.638;11.070;2023-12-20T08:26:34;5.32;;;1.70;;
70444;SDS011;57902;49.638;11.070;2023-12-20T08:29:01;2.92;;;1.45;;
70444;SDS011;57902;49.638;11.070;2023-12-20T08:31:28;3.35;;;1.45;;
70444;SDS011;57902;49.638;11.070;2023-12-20T08:33:55;3.75;;;1.60;;
70444;SDS011;57902;49.638;11.070;2023-12-20T08:36:22;3.17;;;1.40;;
70444;SDS011;57902;49.638;11.070;2023-12-20T08:38:49;2.22;;;1.30;;
70444;SDS011;57902;49.638;11.070;2023-12-20T08:41:17;3.20;;;1.40;;
70444;SDS011;57902;49.638;11.070;2023-12-20T08:43:44;2.75;;;1.30;;
70444;SDS011;57902;49.638;11.070;2023-12-20T08:46:10;3.20;;;1.42;;
70444;SDS011;57902;49.638;11.070;2023-12-20T08:48:38;3.05;;;1.45;;
70444;SDS011;57902;49.638;11.070;2023-12-20T08:51:05;2.72;;;1.05;;
70444;SDS011;57902;49.638;11.070;2023-12-20T08:53:35;2.10;;;0.98;;
70444;SDS011;57902;49.638;11.070;2023-12-20T08:56:01;1.60;;;1.00;;
70444;SDS011;57902;49.638;11.070;2023-12-20T08:58:28;1.63;;;1.00;;
70444;SDS011;57902;49.638;11.070;2023-12-20T09:00:55;4.05;;;1.20;;
70444;SDS011;57902;49.638;11.070;2023-12-20T09:03:22;3.42;;;1.35;;
70444;SDS011;57902;49.638;11.070;2023-12-20T09:05:49;2.70;;;1.20;;
70444;SDS011;57902;49.638;11.070;2023-12-20T09:08:15;3.35;;;1.50;;
70444;SDS011;57902;49.638;11.070;2023-12-20T09:10:42;2.50;;;1.30;;
70444;SDS011;57902;49.638;11.070;2023-12-20T09:13:09;3.20;;;1.30;;
70444;SDS011;57902;49.638;11.070;2023-12-20T09:15:35;4.15;;;1.42;;
70444;SDS011;57902;49.638;11.070;2023-12-20T09:18:02;4.80;;;1.70;;
70444;SDS011;57902;49.638;11.070;2023-12-20T09:20:30;2.97;;;1.30;;
70444;SDS011;57902;49.638;11.070;2023-12-20T09:22:57;3.33;;;1.33;;
70444;SDS011;57902;49.638;11.070;2023-12-20T09:25:24;7.82;;;3.10;;
70444;SDS011;57902;49.638;11.070;2023-12-20T09:27:52;7.20;;;1.60;;
70444;SDS011;57902;49.638;11.070;2023-12-20T09:30:19;3.45;;;1.50;;
70444;SDS011;57902;49.638;11.070;2023-12-20T09:32:53;4.78;;;1.80;;
70444;SDS011;57902;49.638;11.070;2023-12-20T09:35:20;3.38;;;1.20;;
70444;SDS011;57902;49.638;11.070;2023-12-20T09:37:47;4.45;;;1.23;;
70444;SDS011;57902;49.638;11.070;2023-12-20T09:40:14;4.50;;;1.27;;
70444;SDS011;57902;49.638;11.070;2023-12-20T09:42:56;2.80;;;1.13;;
70444;SDS011;57902;49.638;11.070;2023-12-20T09:45:24;3.70;;;1.10;;
70444;SDS011;57902;49.638;11.070;2023-12-20T09:47:52;2.38;;;1.08;;
70444;SDS011;57902;49.638;11.070;2023-12-20T09:52:50;5.43;;;1.35;;
70444;SDS011;57902;49.638;11.070;2023-12-20T09:55:19;2.47;;;1.08;;
70444;SDS011;57902;49.638;11.070;2023-12-20T09:57:47;3.78;;;1.00;;
70444;SDS011;57902;49.638;11.070;2023-12-20T10:00:14;4.13;;;1.02;;
70444;SDS011;57902;49.638;11.070;2023-12-20T10:03:03;4.25;;;1.20;;
70444;SDS011;57902;49.638;11.070;2023-12-20T10:05:30;4.95;;;1.10;;
70444;SDS011;57902;49.638;11.070;2023-12-20T10:07:59;6.47;;;1.20;;
70444;SDS011;57902;49.638;11.070;2023-12-20T10:10:27;6.47;;;1.60;;
70444;SDS011;57902;49.638;11.070;2023-12-20T10:13:09;3.33;;;1.23;;
70444;SDS011;57902;49.638;11.070;2023-12-20T10:15:37;5.25;;;1.45;;
70444;SDS011;57902;49.638;11.070;2023-12-20T10:18:05;5.25;;;1.40;;
70444;SDS011;57902;49.638;11.070;2023-12-20T10:20:32;4.47;;;1.60;;
70444;SDS011;57902;49.638;11.070;2023-12-20T10:22:59;5.10;;;1.50;;
70444;SDS011;57902;49.638;11.070;2023-12-20T10:25:27;3.90;;;1.40;;
70444;SDS011;57902;49.638;11.070;2023-12-20T10:28:10;4.45;;;1.20;;
70444;SDS011;57902;49.638;11.070;2023-12-20T10:30:39;6.15;;;1.65;;
70444;SDS011;57902;49.638;11.070;2023-12-20T10:35:35;2.92;;;1.23;;
70444;SDS011;57902;49.638;11.070;2023-12-20T10:38:04;6.47;;;1.10;;
70444;SDS011;57902;49.638;11.070;2023-12-20T10:40:35;5.53;;;1.13;;
70444;SDS011;57902;49.638;11.070;2023-12-20T10:43:05;3.08;;;1.10;;
70444;SDS011;57902;49.638;11.070;2023-12-20T10:45:32;3.78;;;1.25;;
70444;SDS011;57902;49.638;11.070;2023-12-20T10:48:00;2.63;;;1.13;;
70444;SDS011;57902;49.638;11.070;2023-12-20T10:50:28;3.35;;;1.20;;
70444;SDS011;57902;49.638;11.070;2023-12-20T10:52:57;3.15;;;1.00;;
70444;SDS011;57902;49.638;11.070;2023-12-20T10:55:24;2.78;;;0.90;;
70444;SDS011;57902;49.638;11.070;2023-12-20T10:58:06;2.13;;;1.08;;
70444;SDS011;57902;49.638;11.070;2023-12-20T11:00:39;3.70;;;1.10;;
70444;SDS011;57902;49.638;11.070;2023-12-20T11:03:08;5.10;;;1.55;;
70444;SDS011;57902;49.638;11.070;2023-12-20T11:08:26;6.47;;;1.50;;
70444;SDS011;57902;49.638;11.070;2023-12-20T11:13:40;2.88;;;0.98;;
70444;SDS011;57902;49.638;11.070;2023-12-20T11:16:14;4.40;;;1.05;;
70444;SDS011;57902;49.638;11.070;2023-12-20T11:18:40;6.00;;;1.52;;
70444;SDS011;57902;49.638;11.070;2023-12-20T11:21:07;8.27;;;1.15;;
70444;SDS011;57902;49.638;11.070;2023-12-20T11:23:34;3.70;;;1.08;;
70444;SDS011;57902;49.638;11.070;2023-12-20T11:26:02;5.25;;;1.20;;
70444;SDS011;57902;49.638;11.070;2023-12-20T11:28:29;6.68;;;1.10;;
70444;SDS011;57902;49.638;11.070;2023-12-20T11:30:57;7.40;;;1.65;;
70444;SDS011;57902;49.638;11.070;2023-12-20T11:33:37;5.20;;;1.00;;
70444;SDS011;57902;49.638;11.070;2023-12-20T11:36:12;3.38;;;0.93;;
70444;SDS011;57902;49.638;11.070;2023-12-20T11:38:49;5.05;;;1.17;;
70444;SDS011;57902;49.638;11.070;2023-12-20T11:41:22;4.05;;;1.17;;
70444;SDS011;57902;49.638;11.070;2023-12-20T11:43:53;2.92;;;1.10;;
70444;SDS011;57902;49.638;11.070;2023-12-20T11:46:20;3.72;;;0.93;;
70444;SDS011;57902;49.638;11.070;2023-12-20T11:48:47;4.00;;;1.52;;
70444;SDS011;57902;49.638;11.070;2023-12-20T11:51:14;4.88;;;1.50;;
70444;SDS011;57902;49.638;11.070;2023-12-20T11:53:41;3.67;;;1.17;;
70444;SDS011;57902;49.638;11.070;2023-12-20T11:56:11;2.97;;;1.00;;
70444;SDS011;57902;49.638;11.070;2023-12-20T11:58:38;1.75;;;0.80;;
70444;SDS011;57902;49.638;11.070;2023-12-20T12:01:06;5.07;;;1.27;;
70444;SDS011;57902;49.638;11.070;2023-12-20T12:03:35;6.53;;;1.20;;
70444;SDS011;57902;49.638;11.070;2023-12-20T12:06:02;4.70;;;1.00;;
70444;SDS011;57902;49.638;11.070;2023-12-20T12:08:31;4.05;;;1.35;;
70444;SDS011;57902;49.638;11.070;2023-12-20T12:10:57;2.65;;;0.93;;
70444;SDS011;57902;49.638;11.070;2023-12-20T12:13:24;3.53;;;1.30;;
70444;SDS011;57902;49.638;11.070;2023-12-20T12:15:53;6.05;;;1.45;;
70444;SDS011;57902;49.638;11.070;2023-12-20T12:18:20;8.98;;;1.55;;
70444;SDS011;57902;49.638;11.070;2023-12-20T12:20:47;5.40;;;1.15;;
70444;SDS011;57902;49.638;11.070;2023-12-20T12:23:14;4.07;;;1.30;;
70444;SDS011;57902;49.638;11.070;2023-12-20T12:25:41;3.35;;;1.10;;
70444;SDS011;57902;49.638;11.070;2023-12-20T12:28:09;4.72;;;1.52;;
70444;SDS011;57902;49.638;11.070;2023-12-20T12:30:36;5.65;;;1.40;;
70444;SDS011;57902;49.638;11.070;2023-12-20T12:33:11;4.53;;;1.38;;
70444;SDS011;57902;49.638;11.070;2023-12-20T12:35:38;4.30;;;1.30;;
70444;SDS011;57902;49.638;11.070;2023-12-20T12:38:06;5.88;;;1.10;;
70444;SDS011;57902;49.638;11.070;2023-12-20T12:40:34;6.57;;;1.63;;
70444;SDS011;57902;49.638;11.070;2023-12-20T12:43:01;4.70;;;1.30;;
70444;SDS011;57902;49.638;11.070;2023-12-20T12:45:28;7.10;;;1.35;;
70444;SDS011;57902;49.638;11.070;2023-12-20T12:47:55;6.43;;;1.80;;
70444;SDS011;57902;49.638;11.070;2023-12-20T12:50:21;3.92;;;1.60;;
70444;SDS011;57902;49.638;11.070;2023-12-20T12:52:48;10.20;;;1.92;;
70444;SDS011;57902;49.638;11.070;2023-12-20T12:55:15;4.90;;;1.70;;
70444;SDS011;57902;49.638;11.070;2023-12-20T12:57:42;5.93;;;1.38;;
70444;SDS011;57902;49.638;11.070;2023-12-20T13:00:10;3.90;;;1.20;;
70444;SDS011;57902;49.638;11.070;2023-12-20T13:02:37;5.68;;;1.48;;
70444;SDS011;57902;49.638;11.070;2023-12-20T13:05:09;5.57;;;1.83;;
70444;SDS011;57902;49.638;11.070;2023-12-20T13:07:35;5.20;;;1.55;;
70444;SDS011;57902;49.638;11.070;2023-12-20T13:10:04;4.22;;;1.05;;
70444;SDS011;57902;49.638;11.070;2023-12-20T13:12:32;3.85;;;1.20;;
70444;SDS011;57902;49.638;11.070;2023-12-20T13:14:58;3.05;;;1.20;;
70444;SDS011;57902;49.638;11.070;2023-12-20T13:17:25;4.72;;;1.40;;
70444;SDS011;57902;49.638;11.070;2023-12-20T13:19:55;3.63;;;1.10;;
70444;SDS011;57902;49.638;11.070;2023-12-20T13:22:22;2.67;;;1.10;;
70444;SDS011;57902;49.638;11.070;2023-12-20T13:24:48;4.78;;;1.48;;
70444;SDS011;57902;49.638;11.070;2023-12-20T13:27:15;2.83;;;1.10;;
70444;SDS011;57902;49.638;11.070;2023-12-20T13:29:42;4.75;;;1.20;;
70444;SDS011;57902;49.638;11.070;2023-12-20T13:32:08;3.83;;;1.20;;
70444;SDS011;57902;49.638;11.070;2023-12-20T13:34:35;4.38;;;1.10;;
70444;SDS011;57902;49.638;11.070;2023-12-20T13:37:02;3.88;;;1.00;;
70444;SDS011;57902;49.638;11.070;2023-12-20T13:39:29;5.18;;;1.20;;
70444;SDS011;57902;49.638;11.070;2023-12-20T13:41:57;8.85;;;2.28;;
70444;SDS011;57902;49.638;11.070;2023-12-20T13:44:26;3.60;;;0.93;;
70444;SDS011;57902;49.638;11.070;2023-12-20T13:46:53;7.30;;;1.50;;
70444;SDS011;57902;49.638;11.070;2023-12-20T13:49:19;6.28;;;1.38;;
70444;SDS011;57902;49.638;11.070;2023-12-20T13:51:47;4.32;;;1.30;;
70444;SDS011;57902;49.638;11.070;2023-12-20T13:54:14;4.13;;;1.30;;
70444;SDS011;57902;49.638;11.070;2023-12-20T13:59:27;3.97;;;1.38;;
70444;SDS011;57902;49.638;11.070;2023-12-20T14:01:54;4.15;;;1.20;;
70444;SDS011;57902;49.638;11.070;2023-12-20T14:04:21;4.78;;;1.02;;
70444;SDS011;57902;49.638;11.070;2023-12-20T14:07:08;4.88;;;1.20;;
70444;SDS011;57902;49.638;11.070;2023-12-20T14:09:36;3.33;;;1.10;;
70444;SDS011;57902;49.638;11.070;2023-12-20T14:12:03;3.92;;;1.00;;
70444;SDS011;57902;49.638;11.070;2023-12-20T14:14:29;2.05;;;0.90;;
70444;SDS011;57902;49.638;11.070;2023-12-20T14:16:56;4.45;;;1.10;;
70444;SDS011;57902;49.638;11.070;2023-12-20T14:19:22;3.78;;;0.93;;
70444;SDS011;57902;49.638;11.070;2023-12-20T14:21:49;2.40;;;0.95;;
70444;SDS011;57902;49.638;11.070;2023-12-20T14:24:16;6.35;;;1.05;;
70444;SDS011;57902;49.638;11.070;2023-12-20T14:26:43;3.67;;;1.13;;
70444;SDS011;57902;49.638;11.070;2023-12-20T14:29:09;3.78;;;1.15;;
70444;SDS011;57902;49.638;11.070;2023-12-20T14:31:36;3.85;;;1.33;;
70444;SDS011;57902;49.638;11.070;2023-12-20T14:34:05;4.78;;;1.00;;
70444;SDS011;57902;49.638;11.070;2023-12-20T14:36:34;3.30;;;1.00;;
70444;SDS011;57902;49.638;11.070;2023-12-20T14:39:01;4.95;;;1.40;;
70444;SDS011;57902;49.638;11.070;2023-12-20T14:41:29;3.20;;;1.15;;
70444;SDS011;57902;49.638;11.070;2023-12-20T14:43:57;2.92;;;1.20;;
70444;SDS011;57902;49.638;11.070;2023-12-20T14:46:26;5.30;;;1.40;;
70444;SDS011;57902;49.638;11.070;2023-12-20T14:48:53;3.67;;;1.20;;
70444;SDS011;57902;49.638;11.070;2023-12-20T14:51:19;3.55;;;1.38;;